Pulau Tioman — 3EYO9 — position and weather

sailwx.info

Track history (hours):
 
Tides and Currents Weather Stations Pressure Air Temp Water Temp Dewpoint Dewpoint Depression Visibility Wind Speed Wind Dir Waves Ship Positions

Pulau Tioman

Last reported at 2017-Nov-17 06:02 UTC. Time now 2017-Nov-24 21:01 UTC.
Position N 35°13' E 139°46'.

Length 120 m; draft 6.3 m.

Type: Cargo ship. MMSI: 356613000.

Date/timePositionNaut miles runAvg speedWind from/ knotsBaromVisibWave heightAir tempDewpointWater temp
2017-Nov-17 06:02N 35°13' E 139°46'012.9
2017-Nov-17 05:59N 35°14' E 139°46'611.6
2017-Nov-17 05:30N 35°19' E 139°43'611.1
2017-Nov-17 05:00N 35°24' E 139°43'3 3.9
2017-Nov-17 04:15N 35°27' E 139°41'0 0.0
2017-Nov-17 03:57N 35°27' E 139°41'0 0.0
2017-Nov-17 03:27N 35°27' E 139°41'0 0.0
2017-Nov-17 02:57N 35°27' E 139°41'0 0.0
2017-Nov-17 02:27N 35°27' E 139°41'0 0.0
2017-Nov-17 01:57N 35°27' E 139°41'0 0.0
2017-Nov-17 01:27N 35°27' E 139°41'0 0.0
2017-Nov-17 00:57N 35°27' E 139°41'0 0.0
2017-Nov-17 00:27N 35°27' E 139°41'0 0.0
2017-Nov-16 23:57N 35°27' E 139°41'0 0.0
2017-Nov-16 23:27N 35°27' E 139°41'0 0.0
2017-Nov-16 22:51N 35°27' E 139°41'0 0.0
2017-Nov-16 22:27N 35°27' E 139°41'0 0.0
2017-Nov-16 21:57N 35°27' E 139°41'0 0.0
2017-Nov-16 21:27N 35°27' E 139°41'0 0.0
2017-Nov-16 20:57N 35°27' E 139°41'0 0.0
2017-Nov-16 20:27N 35°27' E 139°41'0 0.0
2017-Nov-16 19:57N 35°27' E 139°41'0 0.0
2017-Nov-16 19:27N 35°27' E 139°41'0 0.0
2017-Nov-16 18:57N 35°27' E 139°41'0 0.0
2017-Nov-16 18:27N 35°27' E 139°41'0 0.0
2017-Nov-16 17:57N 35°27' E 139°41'0 0.0
2017-Nov-16 17:27N 35°27' E 139°41'0 0.0
2017-Nov-16 16:57N 35°27' E 139°41'0 0.0
2017-Nov-16 16:27N 35°27' E 139°41'0 0.0
2017-Nov-16 15:57N 35°27' E 139°41'0 0.0
2017-Nov-16 15:27N 35°27' E 139°41'0 0.0
2017-Nov-16 14:57N 35°27' E 139°41'0 0.0
2017-Nov-16 14:27N 35°27' E 139°41'0 0.0
2017-Nov-16 13:57N 35°27' E 139°41'0 0.0
2017-Nov-16 13:27N 35°27' E 139°41'0 0.0
2017-Nov-16 12:57N 35°27' E 139°41'0 0.0
2017-Nov-16 12:27N 35°27' E 139°41'0 0.0
2017-Nov-16 11:57N 35°27' E 139°41'0 0.0
2017-Nov-16 11:27N 35°27' E 139°41'0 0.0
2017-Nov-16 10:57N 35°27' E 139°41'0 0.0
2017-Nov-16 10:27N 35°27' E 139°41'0 0.0
2017-Nov-16 09:57N 35°27' E 139°41'0 0.0
2017-Nov-16 09:27N 35°27' E 139°41'0 0.0
2017-Nov-16 08:57N 35°27' E 139°41'0 0.0
2017-Nov-16 08:27N 35°27' E 139°41'0 0.1
2017-Nov-16 08:00N 35°27' E 139°41'2 3.7
2017-Nov-16 07:30N 35°26' E 139°43'2 3.2
2017-Nov-16 07:00N 35°24' E 139°43'4 7.4
2017-Nov-16 06:30N 35°20' E 139°43'232 9.2
2017-Nov-15 05:15N 34°26' E 135°09'313.2
2017-Nov-15 05:00N 34°29' E 135°11'713.1
2017-Nov-15 04:29N 34°34' E 135°16'612.2
2017-Nov-15 04:00N 34°40' E 135°18'2 2.8
2017-Nov-15 03:17N 34°41' E 135°17'0 0.0
2017-Nov-15 02:59N 34°41' E 135°17'0 0.0
2017-Nov-15 02:29N 34°41' E 135°17'0 0.0
2017-Nov-15 01:59N 34°41' E 135°17'0 0.0
2017-Nov-15 01:29N 34°41' E 135°17'0 0.0
2017-Nov-15 00:59N 34°41' E 135°17'0 0.0
2017-Nov-15 00:23N 34°41' E 135°17'0 0.0
2017-Nov-14 23:59N 34°41' E 135°17'0 0.0
2017-Nov-14 23:29N 34°41' E 135°17'0 0.0
2017-Nov-14 22:59N 34°41' E 135°17'0 0.0
2017-Nov-14 22:23N 34°41' E 135°17'0 0.0
2017-Nov-14 21:59N 34°41' E 135°17'0 0.0
2017-Nov-14 21:11N 34°41' E 135°17'0 0.0
2017-Nov-14 20:59N 34°41' E 135°17'0 0.0
2017-Nov-14 20:29N 34°41' E 135°17'0 0.0
2017-Nov-14 19:47N 34°41' E 135°17'0 0.0
2017-Nov-14 19:29N 34°41' E 135°17'0 0.0
2017-Nov-14 18:59N 34°41' E 135°17'0 0.0
2017-Nov-14 18:29N 34°41' E 135°17'0 0.0
2017-Nov-14 17:59N 34°41' E 135°17'0 0.0
2017-Nov-14 17:29N 34°41' E 135°17'0 0.0
2017-Nov-14 16:59N 34°41' E 135°17'0 0.0
2017-Nov-14 16:29N 34°41' E 135°17'0 0.0
2017-Nov-14 15:59N 34°41' E 135°17'0 0.0
2017-Nov-14 15:29N 34°41' E 135°17'0 0.0
2017-Nov-14 14:59N 34°41' E 135°17'0 0.0
2017-Nov-14 14:23N 34°41' E 135°17'0 0.0
2017-Nov-14 13:59N 34°41' E 135°17'0 0.0
2017-Nov-14 13:29N 34°41' E 135°17'0 0.0
2017-Nov-14 12:59N 34°41' E 135°17'0 0.0
2017-Nov-14 12:29N 34°41' E 135°17'0 0.0
2017-Nov-14 11:59N 34°41' E 135°17'0 0.0
2017-Nov-14 11:29N 34°41' E 135°17'0 0.0
2017-Nov-14 10:59N 34°41' E 135°17'0 0.0
2017-Nov-14 10:29N 34°41' E 135°17'0 0.0
2017-Nov-14 09:59N 34°41' E 135°17'0 0.0
2017-Nov-14 09:23N 34°41' E 135°17'0 0.0
2017-Nov-14 08:35N 34°41' E 135°17'0 0.0
2017-Nov-14 08:29N 34°41' E 135°17'0 0.0
2017-Nov-14 07:59N 34°41' E 135°17'0 0.0
2017-Nov-14 07:29N 34°41' E 135°17'0 0.0
2017-Nov-14 06:59N 34°41' E 135°17'0 0.0
2017-Nov-14 06:23N 34°41' E 135°17'0 0.0
2017-Nov-14 05:53N 34°41' E 135°17'0 0.0
2017-Nov-14 05:23N 34°41' E 135°17'0 0.0
2017-Nov-14 04:59N 34°41' E 135°17'0 0.0
2017-Nov-14 04:29N 34°41' E 135°17'0 0.0
2017-Nov-14 03:59N 34°41' E 135°17'0 0.0
2017-Nov-14 03:29N 34°41' E 135°17'0 0.0
2017-Nov-14 02:59N 34°41' E 135°17'0 0.0
2017-Nov-14 02:29N 34°41' E 135°17'0 0.0
2017-Nov-14 01:59N 34°41' E 135°17'0 0.0
2017-Nov-14 01:29N 34°41' E 135°17'0 0.0
2017-Nov-14 00:53N 34°41' E 135°17'0 0.0
2017-Nov-14 00:29N 34°41' E 135°17'0 0.0
2017-Nov-14 00:00N 34°41' E 135°17'1 2.2
2017-Nov-13 23:30N 34°41' E 135°18'4 7.1
2017-Nov-13 23:00N 34°37' E 135°17'4 8.8
2017-Nov-13 22:30N 34°37' E 135°12'0 0.3
2017-Nov-13 21:51N 34°37' E 135°12'0 0.0
2017-Nov-13 01:57N 34°37' E 135°12'0 0.0
2017-Nov-13 01:27N 34°37' E 135°12'0 0.0
2017-Nov-13 00:57N 34°37' E 135°12'0 0.0
2017-Nov-13 00:27N 34°37' E 135°12'0 0.0
2017-Nov-12 23:57N 34°37' E 135°12'0 0.0
2017-Nov-12 23:27N 34°37' E 135°12'0 0.0
2017-Nov-12 22:57N 34°37' E 135°12'0 0.0
2017-Nov-12 22:27N 34°37' E 135°12'0 0.0
2017-Nov-12 21:57N 34°37' E 135°12'0 0.0
2017-Nov-12 21:27N 34°37' E 135°12'0 0.0
2017-Nov-12 20:57N 34°37' E 135°12'0 0.0
2017-Nov-12 20:27N 34°37' E 135°12'0 0.0
2017-Nov-12 19:51N 34°37' E 135°12'0 0.0
2017-Nov-12 19:27N 34°37' E 135°12'0 0.0
2017-Nov-12 18:57N 34°37' E 135°12'0 0.0
2017-Nov-12 18:21N 34°37' E 135°12'0 0.0
2017-Nov-12 17:57N 34°37' E 135°12'0 0.0
2017-Nov-12 17:27N 34°37' E 135°12'0 0.0
2017-Nov-12 16:57N 34°37' E 135°12'0 0.0
2017-Nov-12 16:27N 34°37' E 135°12'0 0.0
2017-Nov-12 15:51N 34°37' E 135°12'0 0.0
2017-Nov-12 15:27N 34°37' E 135°12'0 0.0
2017-Nov-12 14:57N 34°37' E 135°12'0 0.0
2017-Nov-12 14:21N 34°37' E 135°12'0 0.0
2017-Nov-12 13:57N 34°37' E 135°12'0 0.0
2017-Nov-12 13:27N 34°37' E 135°12'0 0.0
2017-Nov-12 12:57N 34°37' E 135°12'0 0.0
2017-Nov-12 12:27N 34°37' E 135°12'0 0.0
2017-Nov-12 11:57N 34°37' E 135°12'0 0.0
2017-Nov-12 11:21N 34°37' E 135°12'0 0.1
2017-Nov-12 10:57N 34°37' E 135°12'0 0.1
2017-Nov-12 10:27N 34°37' E 135°12'0 0.1
2017-Nov-12 09:57N 34°37' E 135°12'0 0.0
2017-Nov-12 09:27N 34°37' E 135°12'0 0.0
2017-Nov-12 08:57N 34°37' E 135°12'0 0.0
2017-Nov-12 08:21N 34°37' E 135°12'0 0.0
2017-Nov-12 07:57N 34°37' E 135°12'0 0.1
2017-Nov-12 07:15N 34°37' E 135°12'0 0.0
2017-Nov-12 06:57N 34°37' E 135°12'0 0.0
2017-Nov-12 06:27N 34°37' E 135°12'0 0.0
2017-Nov-12 05:57N 34°37' E 135°12'0 0.0
2017-Nov-12 05:21N 34°37' E 135°12'0 0.0
2017-Nov-12 04:57N 34°37' E 135°12'0 0.0
2017-Nov-12 04:27N 34°37' E 135°12'0 0.1
2017-Nov-12 03:51N 34°37' E 135°12'0 0.0
2017-Nov-12 03:15N 34°37' E 135°12'0 0.1
2017-Nov-12 02:45N 34°37' E 135°12'0 0.1
2017-Nov-12 02:21N 34°37' E 135°12'0 0.0
2017-Nov-12 01:57N 34°37' E 135°12'0 0.1
2017-Nov-12 01:03N 34°37' E 135°12'0 0.1
2017-Nov-12 00:57N 34°37' E 135°12'0 0.0
2017-Nov-12 00:27N 34°37' E 135°12'0 0.0
2017-Nov-11 23:51N 34°37' E 135°12'0 0.0
2017-Nov-11 23:27N 34°37' E 135°12'0 0.0
2017-Nov-11 22:51N 34°37' E 135°12'0 0.0
2017-Nov-11 22:15N 34°37' E 135°12'0 0.0
2017-Nov-11 21:57N 34°37' E 135°12'0 0.0
2017-Nov-11 21:27N 34°37' E 135°12'0 0.0
2017-Nov-11 20:57N 34°37' E 135°12'0 0.0
2017-Nov-11 20:27N 34°37' E 135°12'0 0.0
2017-Nov-11 19:57N 34°37' E 135°12'0 0.0
2017-Nov-11 19:27N 34°37' E 135°12'0 0.1
2017-Nov-11 18:57N 34°37' E 135°12'0 0.0
2017-Nov-11 18:27N 34°37' E 135°12'0 0.0
2017-Nov-11 17:57N 34°37' E 135°12'0 0.0
2017-Nov-11 17:09N 34°37' E 135°12'0 0.0
2017-Nov-11 16:57N 34°37' E 135°12'0 0.0
2017-Nov-11 16:21N 34°37' E 135°12'0 0.0
2017-Nov-11 15:57N 34°37' E 135°12'0 0.1
2017-Nov-11 15:27N 34°37' E 135°12'0 0.1
2017-Nov-11 14:57N 34°37' E 135°12'0 0.1
2017-Nov-11 14:27N 34°37' E 135°12'0 0.0
2017-Nov-11 13:57N 34°37' E 135°12'0 0.0
2017-Nov-11 13:27N 34°37' E 135°12'0 0.0
2017-Nov-11 12:57N 34°37' E 135°12'0 0.0
2017-Nov-11 12:27N 34°37' E 135°12'0 0.1
2017-Nov-11 11:57N 34°37' E 135°12'0 0.1
2017-Nov-11 11:21N 34°37' E 135°12'0 0.0
2017-Nov-11 10:57N 34°37' E 135°12'0 0.0
2017-Nov-11 10:27N 34°37' E 135°12'0 0.1
2017-Nov-11 09:57N 34°37' E 135°12'0 0.0
2017-Nov-11 09:21N 34°37' E 135°12'0 0.1
2017-Nov-11 08:57N 34°37' E 135°12'0 0.0
2017-Nov-11 08:27N 34°37' E 135°12'0 0.0
2017-Nov-11 07:51N 34°37' E 135°12'0 0.0
2017-Nov-11 07:27N 34°37' E 135°12'0 0.0
2017-Nov-11 06:51N 34°37' E 135°12'0 0.0
2017-Nov-11 06:27N 34°37' E 135°12'0 0.1
2017-Nov-11 05:57N 34°37' E 135°12'0 0.1
2017-Nov-11 05:27N 34°37' E 135°12'0 0.0
2017-Nov-11 04:57N 34°37' E 135°12'1 1.2
2017-Nov-11 04:30N 34°37' E 135°12'3 5.2
2017-Nov-11 04:00N 34°35' E 135°14'611.9
2017-Nov-11 03:30N 34°29' E 135°12'1813.2
2017-Nov-11 02:10N 34°15' E 134°59'  
Track history (hours):
 
Tides and Currents Weather Stations Pressure Air Temp Water Temp Dewpoint Dewpoint Depression Visibility Wind Speed Wind Dir Waves Ship Positions

Pulau Tioman

Last reported at 2017-Nov-17 06:02 UTC. Time now 2017-Nov-24 21:01 UTC.
Position N 35°13' E 139°46'.

Length 120 m; draft 6.3 m.

Type: Cargo ship. MMSI: 356613000.

Date/timePositionNaut miles runAvg speedWind from/ knotsBaromVisibWave heightAir tempDewpointWater temp
2017-Nov-17 06:02N 35°13' E 139°46'012.9
2017-Nov-17 05:59N 35°14' E 139°46'611.6
2017-Nov-17 05:30N 35°19' E 139°43'611.1
2017-Nov-17 05:00N 35°24' E 139°43'3 3.9
2017-Nov-17 04:15N 35°27' E 139°41'0 0.0
2017-Nov-17 03:57N 35°27' E 139°41'0 0.0
2017-Nov-17 03:27N 35°27' E 139°41'0 0.0
2017-Nov-17 02:57N 35°27' E 139°41'0 0.0
2017-Nov-17 02:27N 35°27' E 139°41'0 0.0
2017-Nov-17 01:57N 35°27' E 139°41'0 0.0
2017-Nov-17 01:27N 35°27' E 139°41'0 0.0
2017-Nov-17 00:57N 35°27' E 139°41'0 0.0
2017-Nov-17 00:27N 35°27' E 139°41'0 0.0
2017-Nov-16 23:57N 35°27' E 139°41'0 0.0
2017-Nov-16 23:27N 35°27' E 139°41'0 0.0
2017-Nov-16 22:51N 35°27' E 139°41'0 0.0
2017-Nov-16 22:27N 35°27' E 139°41'0 0.0
2017-Nov-16 21:57N 35°27' E 139°41'0 0.0
2017-Nov-16 21:27N 35°27' E 139°41'0 0.0
2017-Nov-16 20:57N 35°27' E 139°41'0 0.0
2017-Nov-16 20:27N 35°27' E 139°41'0 0.0
2017-Nov-16 19:57N 35°27' E 139°41'0 0.0
2017-Nov-16 19:27N 35°27' E 139°41'0 0.0
2017-Nov-16 18:57N 35°27' E 139°41'0 0.0
2017-Nov-16 18:27N 35°27' E 139°41'0 0.0
2017-Nov-16 17:57N 35°27' E 139°41'0 0.0
2017-Nov-16 17:27N 35°27' E 139°41'0 0.0
2017-Nov-16 16:57N 35°27' E 139°41'0 0.0
2017-Nov-16 16:27N 35°27' E 139°41'0 0.0
2017-Nov-16 15:57N 35°27' E 139°41'0 0.0
2017-Nov-16 15:27N 35°27' E 139°41'0 0.0
2017-Nov-16 14:57N 35°27' E 139°41'0 0.0
2017-Nov-16 14:27N 35°27' E 139°41'0 0.0
2017-Nov-16 13:57N 35°27' E 139°41'0 0.0
2017-Nov-16 13:27N 35°27' E 139°41'0 0.0
2017-Nov-16 12:57N 35°27' E 139°41'0 0.0
2017-Nov-16 12:27N 35°27' E 139°41'0 0.0
2017-Nov-16 11:57N 35°27' E 139°41'0 0.0
2017-Nov-16 11:27N 35°27' E 139°41'0 0.0
2017-Nov-16 10:57N 35°27' E 139°41'0 0.0
2017-Nov-16 10:27N 35°27' E 139°41'0 0.0
2017-Nov-16 09:57N 35°27' E 139°41'0 0.0
2017-Nov-16 09:27N 35°27' E 139°41'0 0.0
2017-Nov-16 08:57N 35°27' E 139°41'0 0.0
2017-Nov-16 08:27N 35°27' E 139°41'0 0.1
2017-Nov-16 08:00N 35°27' E 139°41'2 3.7
2017-Nov-16 07:30N 35°26' E 139°43'2 3.2
2017-Nov-16 07:00N 35°24' E 139°43'4 7.4
2017-Nov-16 06:30N 35°20' E 139°43'232 9.2
2017-Nov-15 05:15N 34°26' E 135°09'313.2
2017-Nov-15 05:00N 34°29' E 135°11'713.1
2017-Nov-15 04:29N 34°34' E 135°16'612.2
2017-Nov-15 04:00N 34°40' E 135°18'2 2.8
2017-Nov-15 03:17N 34°41' E 135°17'0 0.0
2017-Nov-15 02:59N 34°41' E 135°17'0 0.0
2017-Nov-15 02:29N 34°41' E 135°17'0 0.0
2017-Nov-15 01:59N 34°41' E 135°17'0 0.0
2017-Nov-15 01:29N 34°41' E 135°17'0 0.0
2017-Nov-15 00:59N 34°41' E 135°17'0 0.0
2017-Nov-15 00:23N 34°41' E 135°17'0 0.0
2017-Nov-14 23:59N 34°41' E 135°17'0 0.0
2017-Nov-14 23:29N 34°41' E 135°17'0 0.0
2017-Nov-14 22:59N 34°41' E 135°17'0 0.0
2017-Nov-14 22:23N 34°41' E 135°17'0 0.0
2017-Nov-14 21:59N 34°41' E 135°17'0 0.0
2017-Nov-14 21:11N 34°41' E 135°17'0 0.0
2017-Nov-14 20:59N 34°41' E 135°17'0 0.0
2017-Nov-14 20:29N 34°41' E 135°17'0 0.0
2017-Nov-14 19:47N 34°41' E 135°17'0 0.0
2017-Nov-14 19:29N 34°41' E 135°17'0 0.0
2017-Nov-14 18:59N 34°41' E 135°17'0 0.0
2017-Nov-14 18:29N 34°41' E 135°17'0 0.0
2017-Nov-14 17:59N 34°41' E 135°17'0 0.0
2017-Nov-14 17:29N 34°41' E 135°17'0 0.0
2017-Nov-14 16:59N 34°41' E 135°17'0 0.0
2017-Nov-14 16:29N 34°41' E 135°17'0 0.0
2017-Nov-14 15:59N 34°41' E 135°17'0 0.0
2017-Nov-14 15:29N 34°41' E 135°17'0 0.0
2017-Nov-14 14:59N 34°41' E 135°17'0 0.0
2017-Nov-14 14:23N 34°41' E 135°17'0 0.0
2017-Nov-14 13:59N 34°41' E 135°17'0 0.0
2017-Nov-14 13:29N 34°41' E 135°17'0 0.0
2017-Nov-14 12:59N 34°41' E 135°17'0 0.0
2017-Nov-14 12:29N 34°41' E 135°17'0 0.0
2017-Nov-14 11:59N 34°41' E 135°17'0 0.0
2017-Nov-14 11:29N 34°41' E 135°17'0 0.0
2017-Nov-14 10:59N 34°41' E 135°17'0 0.0
2017-Nov-14 10:29N 34°41' E 135°17'0 0.0
2017-Nov-14 09:59N 34°41' E 135°17'0 0.0
2017-Nov-14 09:23N 34°41' E 135°17'0 0.0
2017-Nov-14 08:35N 34°41' E 135°17'0 0.0
2017-Nov-14 08:29N 34°41' E 135°17'0 0.0
2017-Nov-14 07:59N 34°41' E 135°17'0 0.0
2017-Nov-14 07:29N 34°41' E 135°17'0 0.0
2017-Nov-14 06:59N 34°41' E 135°17'0 0.0
2017-Nov-14 06:23N 34°41' E 135°17'0 0.0
2017-Nov-14 05:53N 34°41' E 135°17'0 0.0
2017-Nov-14 05:23N 34°41' E 135°17'0 0.0
2017-Nov-14 04:59N 34°41' E 135°17'0 0.0
2017-Nov-14 04:29N 34°41' E 135°17'0 0.0
2017-Nov-14 03:59N 34°41' E 135°17'0 0.0
2017-Nov-14 03:29N 34°41' E 135°17'0 0.0
2017-Nov-14 02:59N 34°41' E 135°17'0 0.0
2017-Nov-14 02:29N 34°41' E 135°17'0 0.0
2017-Nov-14 01:59N 34°41' E 135°17'0 0.0
2017-Nov-14 01:29N 34°41' E 135°17'0 0.0
2017-Nov-14 00:53N 34°41' E 135°17'0 0.0
2017-Nov-14 00:29N 34°41' E 135°17'0 0.0
2017-Nov-14 00:00N 34°41' E 135°17'1 2.2
2017-Nov-13 23:30N 34°41' E 135°18'4 7.1
2017-Nov-13 23:00N 34°37' E 135°17'4 8.8
2017-Nov-13 22:30N 34°37' E 135°12'0 0.3
2017-Nov-13 21:51N 34°37' E 135°12'0 0.0
2017-Nov-13 01:57N 34°37' E 135°12'0 0.0
2017-Nov-13 01:27N 34°37' E 135°12'0 0.0
2017-Nov-13 00:57N 34°37' E 135°12'0 0.0
2017-Nov-13 00:27N 34°37' E 135°12'0 0.0
2017-Nov-12 23:57N 34°37' E 135°12'0 0.0
2017-Nov-12 23:27N 34°37' E 135°12'0 0.0
2017-Nov-12 22:57N 34°37' E 135°12'0 0.0
2017-Nov-12 22:27N 34°37' E 135°12'0 0.0
2017-Nov-12 21:57N 34°37' E 135°12'0 0.0
2017-Nov-12 21:27N 34°37' E 135°12'0 0.0
2017-Nov-12 20:57N 34°37' E 135°12'0 0.0
2017-Nov-12 20:27N 34°37' E 135°12'0 0.0
2017-Nov-12 19:51N 34°37' E 135°12'0 0.0
2017-Nov-12 19:27N 34°37' E 135°12'0 0.0
2017-Nov-12 18:57N 34°37' E 135°12'0 0.0
2017-Nov-12 18:21N 34°37' E 135°12'0 0.0
2017-Nov-12 17:57N 34°37' E 135°12'0 0.0
2017-Nov-12 17:27N 34°37' E 135°12'0 0.0
2017-Nov-12 16:57N 34°37' E 135°12'0 0.0
2017-Nov-12 16:27N 34°37' E 135°12'0 0.0
2017-Nov-12 15:51N 34°37' E 135°12'0 0.0
2017-Nov-12 15:27N 34°37' E 135°12'0 0.0
2017-Nov-12 14:57N 34°37' E 135°12'0 0.0
2017-Nov-12 14:21N 34°37' E 135°12'0 0.0
2017-Nov-12 13:57N 34°37' E 135°12'0 0.0
2017-Nov-12 13:27N 34°37' E 135°12'0 0.0
2017-Nov-12 12:57N 34°37' E 135°12'0 0.0
2017-Nov-12 12:27N 34°37' E 135°12'0 0.0
2017-Nov-12 11:57N 34°37' E 135°12'0 0.0
2017-Nov-12 11:21N 34°37' E 135°12'0 0.1
2017-Nov-12 10:57N 34°37' E 135°12'0 0.1
2017-Nov-12 10:27N 34°37' E 135°12'0 0.1
2017-Nov-12 09:57N 34°37' E 135°12'0 0.0
2017-Nov-12 09:27N 34°37' E 135°12'0 0.0
2017-Nov-12 08:57N 34°37' E 135°12'0 0.0
2017-Nov-12 08:21N 34°37' E 135°12'0 0.0
2017-Nov-12 07:57N 34°37' E 135°12'0 0.1
2017-Nov-12 07:15N 34°37' E 135°12'0 0.0
2017-Nov-12 06:57N 34°37' E 135°12'0 0.0
2017-Nov-12 06:27N 34°37' E 135°12'0 0.0
2017-Nov-12 05:57N 34°37' E 135°12'0 0.0
2017-Nov-12 05:21N 34°37' E 135°12'0 0.0
2017-Nov-12 04:57N 34°37' E 135°12'0 0.0
2017-Nov-12 04:27N 34°37' E 135°12'0 0.1
2017-Nov-12 03:51N 34°37' E 135°12'0 0.0
2017-Nov-12 03:15N 34°37' E 135°12'0 0.1
2017-Nov-12 02:45N 34°37' E 135°12'0 0.1
2017-Nov-12 02:21N 34°37' E 135°12'0 0.0
2017-Nov-12 01:57N 34°37' E 135°12'0 0.1
2017-Nov-12 01:03N 34°37' E 135°12'0 0.1
2017-Nov-12 00:57N 34°37' E 135°12'0 0.0
2017-Nov-12 00:27N 34°37' E 135°12'0 0.0
2017-Nov-11 23:51N 34°37' E 135°12'0 0.0
2017-Nov-11 23:27N 34°37' E 135°12'0 0.0
2017-Nov-11 22:51N 34°37' E 135°12'0 0.0
2017-Nov-11 22:15N 34°37' E 135°12'0 0.0
2017-Nov-11 21:57N 34°37' E 135°12'0 0.0
2017-Nov-11 21:27N 34°37' E 135°12'0 0.0
2017-Nov-11 20:57N 34°37' E 135°12'0 0.0
2017-Nov-11 20:27N 34°37' E 135°12'0 0.0
2017-Nov-11 19:57N 34°37' E 135°12'0 0.0
2017-Nov-11 19:27N 34°37' E 135°12'0 0.1
2017-Nov-11 18:57N 34°37' E 135°12'0 0.0
2017-Nov-11 18:27N 34°37' E 135°12'0 0.0
2017-Nov-11 17:57N 34°37' E 135°12'0 0.0
2017-Nov-11 17:09N 34°37' E 135°12'0 0.0
2017-Nov-11 16:57N 34°37' E 135°12'0 0.0
2017-Nov-11 16:21N 34°37' E 135°12'0 0.0
2017-Nov-11 15:57N 34°37' E 135°12'0 0.1
2017-Nov-11 15:27N 34°37' E 135°12'0 0.1
2017-Nov-11 14:57N 34°37' E 135°12'0 0.1
2017-Nov-11 14:27N 34°37' E 135°12'0 0.0
2017-Nov-11 13:57N 34°37' E 135°12'0 0.0
2017-Nov-11 13:27N 34°37' E 135°12'0 0.0
2017-Nov-11 12:57N 34°37' E 135°12'0 0.0
2017-Nov-11 12:27N 34°37' E 135°12'0 0.1
2017-Nov-11 11:57N 34°37' E 135°12'0 0.1
2017-Nov-11 11:21N 34°37' E 135°12'0 0.0
2017-Nov-11 10:57N 34°37' E 135°12'0 0.0
2017-Nov-11 10:27N 34°37' E 135°12'0 0.1
2017-Nov-11 09:57N 34°37' E 135°12'0 0.0
2017-Nov-11 09:21N 34°37' E 135°12'0 0.1
2017-Nov-11 08:57N 34°37' E 135°12'0 0.0
2017-Nov-11 08:27N 34°37' E 135°12'0 0.0
2017-Nov-11 07:51N 34°37' E 135°12'0 0.0
2017-Nov-11 07:27N 34°37' E 135°12'0 0.0
2017-Nov-11 06:51N 34°37' E 135°12'0 0.0
2017-Nov-11 06:27N 34°37' E 135°12'0 0.1
2017-Nov-11 05:57N 34°37' E 135°12'0 0.1
2017-Nov-11 05:27N 34°37' E 135°12'0 0.0
2017-Nov-11 04:57N 34°37' E 135°12'1 1.2
2017-Nov-11 04:30N 34°37' E 135°12'3 5.2
2017-Nov-11 04:00N 34°35' E 135°14'611.9
2017-Nov-11 03:30N 34°29' E 135°12'1813.2
2017-Nov-11 02:10N 34°15' E 134°59'  

Dump ship's entire track history